Archbold, Ohio
Current Conditions -  °F | °C
As of 8:55 PM on Monday 22 Dec 2014 (Local Time) from KUSE Reporting Station
Drizzle Drizzle  
Wind Chill: 29°   Ceiling: 3100
Heat Index: 36°   Visibility: 4mi
Dew Point: 34°   Wind: 8mph
Humidity: 93%   Direction: 80°E
Pressure: 29.84"   Gusts: NA
Location:  41.52°N, 84.31°W
Report Text: KUSE 230155Z AUTO 08007KT 4SM -DZ BKN031 BKN044 OVC050 02/01 A2984 RMK AO2
Loading
Personal Weather Stations






























Interactive Weather Map New forecast layout! Learn more

10-Day Weather Forecast

Advertisements
Track Severe Weather on mobile